weather.gov     
National Weather Service

Terminal Aerodrome Forecast
NWS Homepage
This page is being discontinued on March 12, 2014.
The same data is available at this site. Please update your bookmarks.
Thank you, and we apologize for the inconvenience.
Please send an email to SR-SRH.Webmaster@noaa.gov with any concerns.


Current Version
Previous Version:    01  02  03  04  05  06  07  08  09  10  11  12  13  14  15  16  17  18  19  20  21  22  23  24  25  26  27  28  29  30  
   31  32  33  34  35  36  37  
[Printable]
348
FTUS46 KOTX 172328
TAFGEG
TAF
KGEG 172328Z 1800/1824 20008KT P6SM -RA SCT015 OVC040
      TEMPO 1800/1803 -RA BKN025 OVC040
     FM180300 19009KT 5SM RA BKN015 OVC025
     FM180700 21017KT 6SM -SHRA SCT012 OVC035
     FM181100 22020G27KT P6SM VCSH SCT012 BKN035
     FM181800 23022KT P6SM BKN050=


348
FTUS46 KOTX 172328
TAFGEG
TAF
KGEG 172328Z 1800/1824 20008KT P6SM -RA SCT015 OVC040
      TEMPO 1800/1803 -RA BKN025 OVC040
     FM180300 19009KT 5SM RA BKN015 OVC025
     FM180700 21017KT 6SM -SHRA SCT012 OVC035
     FM181100 22020G27KT P6SM VCSH SCT012 BKN035
     FM181800 23022KT P6SM BKN050=




U.S. Dept. of Commerce
NOAA National Weather Service
1325 East West Highway
Silver Spring, MD 20910
E-mail: w-nws.webmaster@noaa.gov
Page last modified: May 16, 2007
NATIONAL WEATHER SERVICE: for Safety, for Work, for Fun - FOR LIFE